createdAt,value
2022-10-03T00:01:47.147Z,2.87
2022-10-03T00:04:25.812Z,2.97
2022-10-03T00:07:17.652Z,2.97
2022-10-03T00:10:06.051Z,3.17
2022-10-03T00:13:02.341Z,2.60
2022-10-03T00:15:39.932Z,2.67
2022-10-03T00:18:13.326Z,2.37
2022-10-03T00:20:46.025Z,3.80
2022-10-03T00:23:35.240Z,2.60
2022-10-03T00:26:27.388Z,3.10
2022-10-03T00:28:56.944Z,2.60
2022-10-03T00:32:10.000Z,2.87
2022-10-03T00:35:01.020Z,2.70
2022-10-03T00:37:35.101Z,3.03
2022-10-03T00:40:13.740Z,2.57
2022-10-03T00:42:54.563Z,3.43
2022-10-03T00:45:44.745Z,2.57
2022-10-03T00:48:20.813Z,2.40
2022-10-03T00:50:50.377Z,2.90
2022-10-03T00:53:25.186Z,2.67
2022-10-03T00:56:10.070Z,2.70
2022-10-03T00:58:55.385Z,2.70
2022-10-03T01:01:31.390Z,3.40
2022-10-03T01:04:08.682Z,2.50
2022-10-03T01:07:05.710Z,2.83
2022-10-03T01:10:03.361Z,3.80
2022-10-03T01:12:51.736Z,5.33
2022-10-03T01:15:27.147Z,3.43
2022-10-03T01:18:16.949Z,3.57
2022-10-03T01:20:49.651Z,2.37
2022-10-03T01:23:43.997Z,2.43
2022-10-03T01:26:32.774Z,2.80
2022-10-03T01:29:28.019Z,2.70
2022-10-03T01:32:07.991Z,3.00
2022-10-03T01:34:56.881Z,2.50
2022-10-03T01:37:33.755Z,2.30
2022-10-03T01:40:06.995Z,2.37
2022-10-03T01:42:41.042Z,3.73
2022-10-03T01:45:13.085Z,2.90
2022-10-03T01:48:08.965Z,2.40
2022-10-03T01:50:42.585Z,2.43
2022-10-03T01:53:47.972Z,2.80
2022-10-03T01:56:25.999Z,2.20
2022-10-03T01:59:11.226Z,2.13
2022-10-03T02:01:51.557Z,2.10
2022-10-03T02:04:18.092Z,2.80
2022-10-03T02:07:07.891Z,2.60
2022-10-03T02:10:11.546Z,2.60
2022-10-03T02:12:41.601Z,2.63
2022-10-03T02:15:21.431Z,3.20
2022-10-03T02:18:14.716Z,2.50
2022-10-03T02:20:47.356Z,2.73
2022-10-03T02:23:32.260Z,2.90
2022-10-03T02:26:31.480Z,2.00
2022-10-03T02:28:57.960Z,2.40
2022-10-03T02:31:44.711Z,2.67
2022-10-03T02:34:42.443Z,2.20
2022-10-03T02:37:46.678Z,2.47
2022-10-03T02:40:32.005Z,2.43
2022-10-03T02:43:23.720Z,2.30
2022-10-03T02:46:15.284Z,2.50
2022-10-03T02:48:49.570Z,2.50
2022-10-03T02:51:33.446Z,2.87
2022-10-03T02:54:21.490Z,2.37
2022-10-03T02:57:17.744Z,2.57
2022-10-03T03:00:12.106Z,2.40
2022-10-03T03:03:06.011Z,2.40
2022-10-03T03:05:59.765Z,2.57
2022-10-03T03:08:47.591Z,2.50
2022-10-03T03:11:51.843Z,3.20
2022-10-03T03:14:37.836Z,2.10
2022-10-03T03:17:19.729Z,2.43
2022-10-03T03:19:55.614Z,2.00
2022-10-03T03:22:48.840Z,2.40
2022-10-03T03:25:45.055Z,2.87
2022-10-03T03:28:22.093Z,2.50
2022-10-03T03:31:09.008Z,2.90
2022-10-03T03:33:44.444Z,2.40
2022-10-03T03:36:39.288Z,3.83
2022-10-03T03:39:14.241Z,2.23
2022-10-03T03:42:02.779Z,4.30
2022-10-03T03:44:57.281Z,3.00
2022-10-03T03:47:42.427Z,3.20
2022-10-03T03:50:19.676Z,3.40
2022-10-03T03:53:11.137Z,2.70
2022-10-03T03:55:54.352Z,2.60
2022-10-03T03:58:33.208Z,2.80
2022-10-03T04:01:08.712Z,2.63
2022-10-03T04:03:58.699Z,2.53
2022-10-03T04:06:40.312Z,2.80
2022-10-03T04:09:30.117Z,2.73
2022-10-03T04:12:21.633Z,2.87
2022-10-03T04:15:02.181Z,2.53
2022-10-03T04:18:05.764Z,2.57
2022-10-03T04:20:58.073Z,2.47
2022-10-03T04:23:33.650Z,2.80
2022-10-03T04:26:10.965Z,2.87
2022-10-03T04:28:40.448Z,2.70
2022-10-03T04:31:41.938Z,2.33
2022-10-03T04:34:42.849Z,2.43
2022-10-03T04:37:24.267Z,3.23
2022-10-03T04:40:28.045Z,2.73
2022-10-03T04:43:20.212Z,2.63
2022-10-03T04:46:02.320Z,2.63
2022-10-03T04:48:39.936Z,3.23
2022-10-03T04:51:13.783Z,3.23
2022-10-03T04:54:04.794Z,2.40
2022-10-03T04:56:40.427Z,2.40
2022-10-03T04:59:34.326Z,2.50
2022-10-03T05:02:29.806Z,3.07
2022-10-03T05:05:10.957Z,2.60
2022-10-03T05:07:43.616Z,2.57
2022-10-03T05:10:40.731Z,2.73
2022-10-03T05:13:16.609Z,2.70
2022-10-03T05:15:49.133Z,2.63
2022-10-03T05:18:35.167Z,3.20
2022-10-03T05:21:07.696Z,3.00
2022-10-03T05:23:55.175Z,2.80
2022-10-03T05:26:44.606Z,3.20
2022-10-03T05:29:51.309Z,3.00
2022-10-03T05:32:31.629Z,2.57
2022-10-03T05:35:27.454Z,2.40
2022-10-03T05:38:24.544Z,2.63
2022-10-03T05:41:03.328Z,2.73
2022-10-03T05:43:52.935Z,3.80
2022-10-03T05:46:30.321Z,4.00
2022-10-03T05:49:08.980Z,5.30
2022-10-03T05:52:03.945Z,4.40
2022-10-03T05:55:01.205Z,4.60
2022-10-03T05:57:46.389Z,5.20
2022-10-03T06:00:21.706Z,3.83
2022-10-03T06:03:00.403Z,2.50
2022-10-03T06:05:35.358Z,3.20
2022-10-03T06:08:40.508Z,3.10
2022-10-03T06:11:25.988Z,2.70
2022-10-03T06:14:29.931Z,2.77
2022-10-03T06:17:11.398Z,2.87
2022-10-03T06:19:59.790Z,2.97
2022-10-03T06:23:06.231Z,3.60
2022-10-03T06:26:23.891Z,3.40
2022-10-03T06:29:04.458Z,4.10
2022-10-03T06:32:01.507Z,5.27
2022-10-03T06:35:00.310Z,4.70
2022-10-03T06:37:33.810Z,4.80
2022-10-03T06:40:39.874Z,4.80
2022-10-03T06:43:51.184Z,5.50
2022-10-03T06:46:36.800Z,5.30
2022-10-03T06:49:31.392Z,5.17
2022-10-03T06:52:19.104Z,4.87
2022-10-03T06:54:48.638Z,3.70
2022-10-03T06:57:29.364Z,4.67
2022-10-03T07:00:21.450Z,4.53
2022-10-03T07:03:12.692Z,4.00
2022-10-03T07:05:58.122Z,3.80
2022-10-03T07:08:41.328Z,4.00
2022-10-03T07:11:10.862Z,4.10
2022-10-03T07:13:43.493Z,4.20
2022-10-03T07:16:27.840Z,4.10
2022-10-03T07:19:15.393Z,4.30
2022-10-03T07:22:09.960Z,4.50
2022-10-03T07:25:13.590Z,4.63
2022-10-03T07:27:51.443Z,4.60
2022-10-03T07:30:21.232Z,5.30
2022-10-03T07:32:57.078Z,4.93
2022-10-03T07:35:49.558Z,5.77
2022-10-03T07:39:00.315Z,4.60
2022-10-03T07:41:33.958Z,4.77
2022-10-03T07:44:00.452Z,5.87
2022-10-03T07:46:49.178Z,6.47
2022-10-03T07:49:49.878Z,5.93
2022-10-03T07:52:31.678Z,6.93
2022-10-03T07:55:28.200Z,5.83
2022-10-03T07:58:13.549Z,6.00
2022-10-03T08:00:47.454Z,5.90
2022-10-03T08:03:39.170Z,6.63
2022-10-03T08:06:14.281Z,6.70
2022-10-03T08:09:02.614Z,6.13
2022-10-03T08:12:06.759Z,7.53
2022-10-03T08:14:52.123Z,7.90
2022-10-03T08:17:56.128Z,8.00
2022-10-03T08:20:31.563Z,7.47
2022-10-03T08:23:24.202Z,7.23
2022-10-03T08:25:56.722Z,7.17
2022-10-03T08:28:38.760Z,7.40
2022-10-03T08:31:15.406Z,7.80
2022-10-03T08:33:51.894Z,7.07
2022-10-03T08:36:36.802Z,6.87
2022-10-03T08:39:21.618Z,6.37
2022-10-03T08:42:10.077Z,6.93
2022-10-03T08:44:46.597Z,6.70
2022-10-03T08:47:16.052Z,6.67
2022-10-03T08:49:42.597Z,6.60
2022-10-03T08:52:45.257Z,6.17
2022-10-03T08:55:23.416Z,6.33
2022-10-03T08:58:20.732Z,6.70
2022-10-03T09:01:16.057Z,6.37
2022-10-03T09:04:10.377Z,5.77
2022-10-03T09:07:17.915Z,5.90
2022-10-03T09:09:54.480Z,5.00
2022-10-03T09:12:42.787Z,4.33
2022-10-03T09:15:15.566Z,5.07
2022-10-03T09:18:21.646Z,4.93
2022-10-03T09:21:07.044Z,4.70
2022-10-03T09:23:45.720Z,5.03
2022-10-03T09:26:18.228Z,5.03
2022-10-03T09:29:09.599Z,5.13
2022-10-03T09:32:42.053Z,4.77
2022-10-03T09:35:39.630Z,4.50
2022-10-03T09:38:25.116Z,3.87
2022-10-03T09:41:25.595Z,4.10
2022-10-03T09:44:20.212Z,4.10
2022-10-03T09:47:09.669Z,3.30
2022-10-03T09:50:03.842Z,3.33
2022-10-03T09:53:11.769Z,3.53
2022-10-03T09:56:16.144Z,3.30
2022-10-03T09:59:07.171Z,3.83
2022-10-03T10:01:52.551Z,3.90
2022-10-03T10:04:54.817Z,4.03
2022-10-03T10:07:45.991Z,3.90
2022-10-03T10:11:01.727Z,4.03
2022-10-03T10:14:08.241Z,3.90
2022-10-03T10:16:56.563Z,3.57
2022-10-03T10:19:32.103Z,2.80
2022-10-03T10:22:01.539Z,2.93
2022-10-03T10:24:46.808Z,3.80
2022-10-03T10:27:32.008Z,2.50
2022-10-03T10:30:37.411Z,2.67
2022-10-03T10:33:24.274Z,2.40
2022-10-03T10:36:12.422Z,2.80
2022-10-03T10:39:06.692Z,2.60
2022-10-03T10:41:57.303Z,2.67
2022-10-03T10:44:45.498Z,2.87
2022-10-03T10:47:15.183Z,2.60
2022-10-03T10:49:50.956Z,2.40
2022-10-03T10:52:30.863Z,2.83
2022-10-03T10:55:36.142Z,2.90
2022-10-03T10:58:21.467Z,2.40
2022-10-03T11:01:19.202Z,2.40
2022-10-03T11:04:34.942Z,2.30
2022-10-03T11:07:16.463Z,2.43
2022-10-03T11:10:20.655Z,2.00
2022-10-03T11:13:30.054Z,2.17
2022-10-03T11:16:38.186Z,2.47
2022-10-03T11:19:14.411Z,1.77
2022-10-03T11:21:46.691Z,1.47
2022-10-03T11:24:59.086Z,2.33
2022-10-03T11:27:56.193Z,1.93
2022-10-03T11:30:35.976Z,1.40
2022-10-03T11:33:13.049Z,1.80
2022-10-03T11:36:12.132Z,1.50
2022-10-03T11:38:43.649Z,1.77
2022-10-03T11:41:13.057Z,1.53
2022-10-03T11:44:01.893Z,2.17
2022-10-03T11:46:50.467Z,1.73
2022-10-03T11:49:51.286Z,1.33
2022-10-03T11:52:23.712Z,1.90
2022-10-03T11:55:04.437Z,1.60
2022-10-03T11:57:34.907Z,1.97
2022-10-03T12:00:14.761Z,1.70
2022-10-03T12:02:47.554Z,1.80
2022-10-03T12:05:29.139Z,1.77
2022-10-03T12:08:32.972Z,1.63
2022-10-03T12:11:19.105Z,1.47
2022-10-03T12:14:07.417Z,1.50
2022-10-03T12:17:00.080Z,1.63
2022-10-03T12:19:48.046Z,1.90
2022-10-03T12:22:33.154Z,1.90
2022-10-03T12:25:15.273Z,1.70
2022-10-03T12:27:58.918Z,1.63
2022-10-03T12:30:28.626Z,1.67
2022-10-03T12:33:17.066Z,1.57
2022-10-03T12:35:50.884Z,1.50
2022-10-03T12:38:40.192Z,1.60
2022-10-03T12:41:18.207Z,1.77
2022-10-03T12:44:16.976Z,1.97
2022-10-03T12:46:43.496Z,1.80
2022-10-03T12:49:22.846Z,2.00
2022-10-03T12:51:58.802Z,2.50
2022-10-03T12:54:26.748Z,2.00
2022-10-03T12:57:12.187Z,2.20
2022-10-03T12:59:41.947Z,1.57
2022-10-03T13:02:47.194Z,2.00
2022-10-03T13:05:55.814Z,2.27
2022-10-03T13:08:42.714Z,2.23
2022-10-03T13:11:14.430Z,2.83
2022-10-03T13:14:06.351Z,2.47
2022-10-03T13:16:48.264Z,2.17
2022-10-03T13:19:18.470Z,2.00
2022-10-03T13:22:07.425Z,1.73
2022-10-03T13:24:50.256Z,1.80
2022-10-03T13:27:41.373Z,1.77
2022-10-03T13:30:21.772Z,1.60
2022-10-03T13:32:59.059Z,2.23
2022-10-03T13:36:00.087Z,1.80
2022-10-03T13:38:48.996Z,2.00
2022-10-03T13:41:37.603Z,2.10
2022-10-03T13:44:23.727Z,1.77
2022-10-03T13:47:02.180Z,2.30
2022-10-03T13:49:36.200Z,2.40
2022-10-03T13:52:22.208Z,1.83
2022-10-03T13:54:54.790Z,1.80
2022-10-03T13:57:28.675Z,2.23
2022-10-03T14:00:15.058Z,1.47
2022-10-03T14:02:50.632Z,1.87
2022-10-03T14:05:32.366Z,2.00
2022-10-03T14:08:06.812Z,1.77
2022-10-03T14:11:00.681Z,1.87
2022-10-03T14:14:09.458Z,1.87
2022-10-03T14:16:50.062Z,2.00
2022-10-03T14:19:39.208Z,1.73
2022-10-03T14:22:59.642Z,1.60
2022-10-03T14:25:29.397Z,2.00
2022-10-03T14:28:28.643Z,1.70
2022-10-03T14:31:18.534Z,1.57
2022-10-03T14:33:53.955Z,1.80
2022-10-03T14:36:33.179Z,2.10
2022-10-03T14:39:14.939Z,1.77
2022-10-03T14:41:55.195Z,3.47
2022-10-03T14:44:37.476Z,1.73
2022-10-03T14:47:09.113Z,2.23
2022-10-03T14:49:59.211Z,1.67
2022-10-03T14:52:29.953Z,1.90
2022-10-03T14:55:00.141Z,1.80
2022-10-03T14:57:29.682Z,2.07
2022-10-03T14:59:58.384Z,1.87
2022-10-03T15:02:38.771Z,1.80
2022-10-03T15:05:14.956Z,1.60
2022-10-03T15:07:44.204Z,1.40
2022-10-03T15:10:14.804Z,1.57
2022-10-03T15:12:45.214Z,2.10
2022-10-03T15:15:25.149Z,1.87
2022-10-03T15:17:57.633Z,2.00
2022-10-03T15:20:30.961Z,1.47
2022-10-03T15:23:09.599Z,2.40
2022-10-03T15:25:41.468Z,2.23
2022-10-03T15:28:21.930Z,3.70
2022-10-03T15:30:49.778Z,2.07
2022-10-03T15:33:34.503Z,1.90
2022-10-03T15:36:14.619Z,1.30
2022-10-03T15:38:44.285Z,1.50
2022-10-03T15:41:24.240Z,1.60
2022-10-03T15:43:53.520Z,1.33
2022-10-03T15:46:43.433Z,1.53
2022-10-03T15:49:20.944Z,1.70
2022-10-03T15:51:50.308Z,1.83
2022-10-03T15:54:22.194Z,1.80
2022-10-03T15:56:59.950Z,2.70
2022-10-03T15:59:30.221Z,5.37
2022-10-03T16:01:57.387Z,3.33
2022-10-03T16:04:27.361Z,1.83
2022-10-03T16:06:53.856Z,15.37
2022-10-03T16:09:52.785Z,2.60
2022-10-03T16:12:37.774Z,3.87
2022-10-03T16:15:17.003Z,2.60
2022-10-03T16:18:02.390Z,1.93
2022-10-03T16:20:36.001Z,1.70
2022-10-03T16:23:18.113Z,2.37
2022-10-03T16:25:59.942Z,2.00
2022-10-03T16:28:45.564Z,2.00
2022-10-03T16:31:26.562Z,1.80
2022-10-03T16:34:04.768Z,4.13
2022-10-03T16:36:33.178Z,1.90
2022-10-03T16:39:03.875Z,2.90
2022-10-03T16:41:35.715Z,2.33
2022-10-03T16:44:04.495Z,2.73
2022-10-03T16:46:42.780Z,2.10
2022-10-03T16:49:46.821Z,2.47
2022-10-03T16:52:15.932Z,2.07
2022-10-03T16:54:43.850Z,2.30
2022-10-03T16:57:22.060Z,2.53
2022-10-03T16:59:52.022Z,2.57
2022-10-03T17:02:24.487Z,2.70
2022-10-03T17:05:01.160Z,2.57
2022-10-03T17:07:38.195Z,2.50
2022-10-03T17:10:28.489Z,2.40
2022-10-03T17:13:01.298Z,2.50
2022-10-03T17:15:34.015Z,2.63
2022-10-03T17:18:25.294Z,3.13
2022-10-03T17:20:56.713Z,2.63
2022-10-03T17:23:45.618Z,2.87
2022-10-03T17:26:33.194Z,2.70
2022-10-03T17:29:23.898Z,2.67
2022-10-03T17:31:59.173Z,2.70
2022-10-03T17:34:37.705Z,2.70
2022-10-03T17:37:15.245Z,2.70
2022-10-03T17:39:56.215Z,2.90
2022-10-03T17:42:38.541Z,3.27
2022-10-03T17:45:23.885Z,3.00
2022-10-03T17:47:52.165Z,2.70
2022-10-03T17:50:31.457Z,3.00
2022-10-03T17:53:00.183Z,3.30
2022-10-03T17:55:33.785Z,3.23
2022-10-03T17:58:05.281Z,3.80
2022-10-03T18:00:59.122Z,3.97
2022-10-03T18:03:30.474Z,3.23
2022-10-03T18:06:22.814Z,3.40
2022-10-03T18:08:50.800Z,3.10
2022-10-03T18:11:21.857Z,3.37
2022-10-03T18:13:53.518Z,3.10
2022-10-03T18:16:34.088Z,3.07
2022-10-03T18:19:21.891Z,3.20
2022-10-03T18:21:54.588Z,3.37
2022-10-03T18:24:34.904Z,3.10
2022-10-03T18:27:20.349Z,2.80
2022-10-03T18:29:48.768Z,3.50
2022-10-03T18:32:23.976Z,2.70
2022-10-03T18:35:05.183Z,3.27
2022-10-03T18:37:31.772Z,2.83
2022-10-03T18:39:59.179Z,3.47
2022-10-03T18:42:30.310Z,3.20
2022-10-03T18:44:58.707Z,3.40
2022-10-03T18:47:36.030Z,3.20
2022-10-03T18:50:11.318Z,3.80
2022-10-03T18:52:50.335Z,4.10
2022-10-03T18:55:29.431Z,5.00
2022-10-03T18:58:16.818Z,3.50
2022-10-03T19:01:02.925Z,3.40
2022-10-03T19:03:35.238Z,3.97
2022-10-03T19:06:23.781Z,3.60
2022-10-03T19:08:53.949Z,3.20
2022-10-03T19:11:35.021Z,3.63
2022-10-03T19:14:11.212Z,3.83
2022-10-03T19:16:50.259Z,3.70
2022-10-03T19:19:44.627Z,3.77
2022-10-03T19:22:13.996Z,3.40
2022-10-03T19:24:57.885Z,3.80
2022-10-03T19:27:40.217Z,3.00
2022-10-03T19:30:08.472Z,3.60
2022-10-03T19:32:42.584Z,5.40
2022-10-03T19:35:16.835Z,3.20
2022-10-03T19:37:47.342Z,3.27
2022-10-03T19:40:35.878Z,3.00
2022-10-03T19:43:32.979Z,3.07
2022-10-03T19:46:08.017Z,3.23
2022-10-03T19:48:35.244Z,3.20
2022-10-03T19:51:21.610Z,3.30
2022-10-03T19:53:52.184Z,3.53
2022-10-03T19:56:21.012Z,3.30
2022-10-03T19:59:03.613Z,3.00
2022-10-03T20:01:47.558Z,3.47
2022-10-03T20:04:18.992Z,2.80
2022-10-03T20:06:48.663Z,2.90
2022-10-03T20:09:28.518Z,3.30
2022-10-03T20:12:00.509Z,3.67
2022-10-03T20:14:33.693Z,2.67
2022-10-03T20:17:04.128Z,3.80
2022-10-03T20:19:56.677Z,3.47
2022-10-03T20:22:32.075Z,3.33
2022-10-03T20:24:59.891Z,3.10
2022-10-03T20:27:46.190Z,3.10
2022-10-03T20:30:36.118Z,3.40
2022-10-03T20:33:03.307Z,3.50
2022-10-03T20:35:39.570Z,3.70
2022-10-03T20:38:20.502Z,3.20
2022-10-03T20:41:15.503Z,3.43
2022-10-03T20:43:46.934Z,3.53
2022-10-03T20:46:23.078Z,3.70
2022-10-03T20:49:11.130Z,3.30
2022-10-03T20:51:44.816Z,3.77
2022-10-03T20:54:17.954Z,4.07
2022-10-03T20:57:02.434Z,3.90
2022-10-03T20:59:38.362Z,3.90
2022-10-03T21:02:15.435Z,4.17
2022-10-03T21:05:06.151Z,3.80
2022-10-03T21:07:36.127Z,3.63
2022-10-03T21:10:09.251Z,3.50
2022-10-03T21:12:41.634Z,3.60
2022-10-03T21:15:29.997Z,4.30
2022-10-03T21:17:57.135Z,3.83
2022-10-03T21:20:32.513Z,4.03
2022-10-03T21:23:02.929Z,3.90
2022-10-03T21:25:40.112Z,3.20
2022-10-03T21:28:29.447Z,3.80
2022-10-03T21:31:01.977Z,3.60
2022-10-03T21:33:31.514Z,3.70
2022-10-03T21:36:09.264Z,4.03
2022-10-03T21:38:50.200Z,3.17
2022-10-03T21:41:34.797Z,3.33
2022-10-03T21:44:03.944Z,4.07
2022-10-03T21:46:57.592Z,3.77
2022-10-03T21:49:54.111Z,4.10
2022-10-03T21:52:45.581Z,3.60
2022-10-03T21:55:33.567Z,3.57
2022-10-03T21:58:25.987Z,4.10
2022-10-03T22:01:20.643Z,3.77
2022-10-03T22:03:47.271Z,3.67
2022-10-03T22:06:22.852Z,4.50
2022-10-03T22:08:49.834Z,3.80
2022-10-03T22:11:22.388Z,3.80
2022-10-03T22:14:11.742Z,3.77
2022-10-03T22:17:00.402Z,3.60
2022-10-03T22:19:45.974Z,3.77
2022-10-03T22:22:21.567Z,3.83
2022-10-03T22:25:06.487Z,3.33
2022-10-03T22:27:54.454Z,4.03
2022-10-03T22:30:21.503Z,3.63
2022-10-03T22:32:48.121Z,4.03
2022-10-03T22:35:28.595Z,4.40
2022-10-03T22:37:56.278Z,3.80
2022-10-03T22:40:24.448Z,3.73
2022-10-03T22:42:55.079Z,3.80
2022-10-03T22:45:25.565Z,4.13
2022-10-03T22:47:59.833Z,4.10
2022-10-03T22:50:30.546Z,4.07
2022-10-03T22:52:58.962Z,3.90
2022-10-03T22:55:26.150Z,4.37
2022-10-03T22:57:53.224Z,4.30
2022-10-03T23:00:26.842Z,4.77
2022-10-03T23:03:12.888Z,5.43
2022-10-03T23:05:49.106Z,4.53
2022-10-03T23:08:33.931Z,5.77
2022-10-03T23:11:21.921Z,5.23
2022-10-03T23:13:49.288Z,5.33
2022-10-03T23:16:54.378Z,5.23
2022-10-03T23:19:49.696Z,5.67
2022-10-03T23:22:17.846Z,4.83
2022-10-03T23:24:48.070Z,4.87
2022-10-03T23:27:33.140Z,5.17
2022-10-03T23:30:11.937Z,4.50
2022-10-03T23:32:47.898Z,4.70
2022-10-03T23:35:17.378Z,4.57
2022-10-03T23:37:48.935Z,4.33
2022-10-03T23:40:37.428Z,4.53
2022-10-03T23:43:05.801Z,4.00
2022-10-03T23:45:36.241Z,4.03
2022-10-03T23:48:04.251Z,3.87
2022-10-03T23:50:52.896Z,4.43
2022-10-03T23:53:38.527Z,4.40
2022-10-03T23:56:24.829Z,4.70
2022-10-03T23:59:10.385Z,5.00
